Time;durP1;ratioP1;P1;durP2;ratioP2;P2;SDS_P1;SDS_P2;PMS_P1;PMS_P2;Temp;Humidity;BMP_temperature;BMP_pressure;BME280_temperature;BME280_humidity;BME280_pressure;Samples;Min_cycle;Max_cycle;Signal;HPM_P1;HPM_P2
2022/09/15 00:00:54;;;;;;;7.73;3.70;;;14.90;99.90;;;;;;5043012;28;20200;-68
2022/09/15 00:03:21;;;;;;;8.20;3.90;;;14.70;99.90;;;;;;5059612;28;20683;-67
2022/09/15 00:05:51;;;;;;;9.93;3.87;;;14.70;99.90;;;;;;5028984;28;20205;-68
2022/09/15 00:08:18;;;;;;;5.17;3.63;;;14.70;99.90;;;;;;5028516;28;20220;-68
2022/09/15 00:10:48;;;;;;;5.10;3.17;;;14.70;99.90;;;;;;5028670;28;20757;-67
2022/09/15 00:13:15;;;;;;;8.13;3.73;;;14.60;99.90;;;;;;5029021;28;20294;-67
2022/09/15 00:15:42;;;;;;;6.83;3.37;;;14.60;99.90;;;;;;5028404;28;20554;-68
2022/09/15 00:18:08;;;;;;;6.17;3.00;;;14.60;99.90;;;;;;5028712;28;20324;-68
2022/09/15 00:20:39;;;;;;;5.33;3.63;;;14.60;99.90;;;;;;5028391;28;20686;-68
2022/09/15 00:23:08;;;;;;;8.50;3.20;;;14.60;99.90;;;;;;5047531;28;20733;-69
2022/09/15 00:25:34;;;;;;;9.20;3.40;;;14.60;99.90;;;;;;5065951;28;20211;-68
2022/09/15 00:28:01;;;;;;;6.53;3.30;;;14.70;99.90;;;;;;5049364;28;20544;-68
2022/09/15 00:30:28;;;;;;;5.63;3.33;;;14.70;99.90;;;;;;5041024;28;20204;-68
2022/09/15 00:32:55;;;;;;;4.63;3.07;;;14.80;99.90;;;;;;5034696;28;20624;-68
2022/09/15 00:35:22;;;;;;;6.63;3.00;;;14.80;99.90;;;;;;5028241;28;20233;-68
2022/09/15 00:37:48;;;;;;;4.23;3.03;;;14.80;99.90;;;;;;5028122;28;20231;-68
2022/09/15 00:40:16;;;;;;;6.20;3.03;;;14.80;99.90;;;;;;5045805;28;20200;-68
2022/09/15 00:42:43;;;;;;;5.30;2.97;;;14.80;99.90;;;;;;5047442;28;20576;-68
2022/09/15 00:45:16;;;;;;;5.63;3.27;;;14.80;99.90;;;;;;5047919;28;20220;-68
2022/09/15 00:47:43;;;;;;;7.10;3.30;;;14.80;99.90;;;;;;5048012;28;20199;-68
2022/09/15 00:50:15;;;;;;;6.10;3.17;;;14.80;99.90;;;;;;5048010;28;20215;-68
2022/09/15 00:52:47;;;;;;;6.73;3.17;;;14.70;99.90;;;;;;5046191;28;20214;-68
2022/09/15 00:55:19;;;;;;;5.57;3.00;;;14.70;99.90;;;;;;5057396;28;20203;-68
2022/09/15 00:57:52;;;;;;;7.83;3.50;;;14.60;99.90;;;;;;5066964;28;20278;-68
2022/09/15 01:00:21;;;;;;;7.07;3.10;;;14.40;99.90;;;;;;5047586;28;20619;-68
2022/09/15 01:02:49;;;;;;;7.57;3.40;;;14.40;99.90;;;;;;5048044;28;20211;-68
2022/09/15 01:05:19;;;;;;;3.40;3.07;;;14.40;99.90;;;;;;5047519;28;20261;-69
2022/09/15 01:07:50;;;;;;;7.23;3.27;;;14.40;99.90;;;;;;5047186;28;20200;-69
2022/09/15 01:10:23;;;;;;;5.60;3.10;;;14.30;99.90;;;;;;5047826;28;20199;-69
2022/09/15 01:12:50;;;;;;;6.77;3.30;;;14.20;99.90;;;;;;5047652;28;20203;-69
2022/09/15 01:15:16;;;;;;;4.07;3.30;;;14.20;99.90;;;;;;5046053;28;20207;-69
2022/09/15 01:17:56;;;;;;;5.80;3.43;;;14.20;99.90;;;;;;5027596;28;20228;-69
2022/09/15 01:20:45;;;;;;;9.13;3.80;;;14.10;99.90;;;;;;5027666;28;20621;-68
2022/09/15 01:23:57;;;;;;;6.77;3.30;;;14.10;99.90;;;;;;5042388;28;20239;-68
2022/09/15 01:27:02;;;;;;;7.17;3.53;;;14.00;99.90;;;;;;4966318;28;20200;-68
2022/09/15 01:29:58;;;;;;;5.93;3.33;;;14.10;99.90;;;;;;5027735;28;20208;-68
2022/09/15 01:35:24;;;;;;;6.23;3.43;;;14.00;99.90;;;;;;5027541;28;20220;-68
2022/09/15 01:37:58;;;;;;;5.33;3.30;;;14.10;99.90;;;;;;5027589;28;20220;-68
2022/09/15 01:40:42;;;;;;;5.37;3.00;;;14.10;99.90;;;;;;5040096;28;20197;-68
2022/09/15 01:43:10;;;;;;;8.50;3.47;;;14.10;99.90;;;;;;5027780;28;20204;-68
2022/09/15 01:45:41;;;;;;;3.80;3.30;;;14.00;99.90;;;;;;5043427;28;20204;-68
2022/09/15 01:48:09;;;;;;;4.17;2.80;;;14.10;99.90;;;;;;5047511;28;20196;-67
2022/09/15 01:50:42;;;;;;;8.13;3.50;;;14.20;99.90;;;;;;5047692;28;20547;-68
2022/09/15 01:53:13;;;;;;;7.40;3.53;;;14.10;99.90;;;;;;5047136;28;20201;-68
2022/09/15 01:55:43;;;;;;;5.10;3.40;;;14.10;99.90;;;;;;5050780;28;20196;-68
2022/09/15 01:58:11;;;;;;;7.20;3.53;;;14.10;99.90;;;;;;5046152;28;20703;-68
2022/09/15 02:00:43;;;;;;;5.47;3.17;;;14.10;99.90;;;;;;5046683;28;20569;-68
2022/09/15 02:03:18;;;;;;;8.83;3.57;;;14.00;99.90;;;;;;5046869;28;20196;-68
2022/09/15 02:05:51;;;;;;;6.17;4.00;;;14.00;99.90;;;;;;5047007;28;20635;-68
2022/09/15 02:08:23;;;;;;;6.80;3.73;;;14.00;99.90;;;;;;5046157;28;20531;-68
2022/09/15 02:10:59;;;;;;;4.67;3.70;;;14.00;99.90;;;;;;5046446;28;20197;-68
2022/09/15 02:13:37;;;;;;;8.83;3.87;;;14.00;99.90;;;;;;5046712;28;20200;-68
2022/09/15 02:16:18;;;;;;;7.10;3.70;;;14.10;99.90;;;;;;5046689;28;20658;-68
2022/09/15 02:18:57;;;;;;;8.53;3.53;;;14.20;99.90;;;;;;5049541;28;20219;-68
2022/09/15 02:21:30;;;;;;;8.27;3.63;;;14.20;99.90;;;;;;5050096;28;20204;-67
2022/09/15 02:24:02;;;;;;;6.50;3.60;;;14.20;99.90;;;;;;5050242;28;20240;-69
2022/09/15 02:26:31;;;;;;;9.27;4.27;;;14.10;99.90;;;;;;5050646;28;20283;-69
2022/09/15 02:29:00;;;;;;;6.17;3.50;;;14.10;99.90;;;;;;5050588;28;20373;-68
2022/09/15 02:31:31;;;;;;;9.20;4.30;;;14.00;99.90;;;;;;5050405;28;20211;-68
2022/09/15 02:34:03;;;;;;;7.17;4.03;;;14.00;99.90;;;;;;5031814;28;20979;-68
2022/09/15 02:36:31;;;;;;;8.10;4.10;;;14.00;99.90;;;;;;5028813;28;20197;-68
2022/09/15 02:39:01;;;;;;;6.80;4.13;;;14.00;99.90;;;;;;5028826;28;20233;-68
2022/09/15 02:41:28;;;;;;;4.93;4.10;;;13.90;99.90;;;;;;5032548;28;20217;-68
2022/09/15 02:43:55;;;;;;;7.37;5.07;;;13.80;99.90;;;;;;5043878;28;20205;-67
2022/09/15 02:46:23;;;;;;;10.97;8.33;;;13.80;99.90;;;;;;5027880;28;20212;-68
2022/09/15 02:48:52;;;;;;;8.13;5.03;;;13.80;99.90;;;;;;5028100;28;20667;-67
2022/09/15 02:51:19;;;;;;;5.90;3.90;;;13.80;99.90;;;;;;5037297;28;20208;-67
2022/09/15 02:53:46;;;;;;;6.63;4.00;;;13.80;99.90;;;;;;5050262;28;20207;-67
2022/09/15 02:56:15;;;;;;;7.43;4.10;;;13.80;99.90;;;;;;5068044;28;20204;-68
2022/09/15 02:58:42;;;;;;;10.43;4.37;;;13.90;99.90;;;;;;5067672;28;20231;-68
2022/09/15 03:01:13;;;;;;;9.77;4.73;;;13.80;99.90;;;;;;5053291;28;20231;-67
2022/09/15 03:03:40;;;;;;;7.23;4.40;;;13.80;99.90;;;;;;5039426;28;20204;-67
2022/09/15 03:08:54;;;;;;;7.17;4.03;;;13.70;99.90;;;;;;5028625;28;20659;-67
2022/09/15 03:11:22;;;;;;;7.90;4.33;;;13.60;99.90;;;;;;5029603;28;20208;-67
2022/09/15 03:13:53;;;;;;;7.67;3.93;;;13.60;99.90;;;;;;5029391;28;20663;-68
2022/09/15 03:16:20;;;;;;;5.63;4.07;;;13.60;99.90;;;;;;5043999;28;20204;-68
2022/09/15 03:18:47;;;;;;;5.70;4.10;;;13.50;99.90;;;;;;5049559;28;20228;-67
2022/09/15 03:21:17;;;;;;;5.53;4.10;;;13.50;99.90;;;;;;5049409;28;20208;-68
2022/09/15 03:23:44;;;;;;;6.70;4.70;;;13.50;99.90;;;;;;5049102;28;20271;-67
2022/09/15 03:26:12;;;;;;;5.70;3.87;;;13.40;99.90;;;;;;5049557;28;20212;-67
2022/09/15 03:28:39;;;;;;;7.43;4.00;;;13.40;99.90;;;;;;5048944;28;20212;-68
2022/09/15 03:31:06;;;;;;;6.43;4.43;;;13.30;99.90;;;;;;5048380;28;20671;-68
2022/09/15 03:33:34;;;;;;;5.90;4.50;;;13.30;99.90;;;;;;5048711;28;20984;-67
2022/09/15 03:36:01;;;;;;;6.20;4.50;;;13.30;99.90;;;;;;5049510;28;20204;-67
2022/09/15 03:38:33;;;;;;;10.43;5.07;;;13.20;99.90;;;;;;5048711;28;20311;-67
2022/09/15 03:41:01;;;;;;;5.47;4.20;;;13.20;99.90;;;;;;5049333;28;20207;-68
2022/09/15 03:43:33;;;;;;;8.13;4.57;;;13.10;99.90;;;;;;5048958;28;20232;-67
2022/09/15 03:46:00;;;;;;;6.30;4.30;;;13.20;99.90;;;;;;5049255;28;20215;-67
2022/09/15 03:48:29;;;;;;;6.53;4.60;;;13.10;99.90;;;;;;5049035;28;20216;-67
2022/09/15 03:50:56;;;;;;;5.27;4.27;;;13.10;99.90;;;;;;5049059;28;20207;-68
2022/09/15 03:53:23;;;;;;;7.50;4.33;;;13.20;99.90;;;;;;5048915;28;20215;-67
2022/09/15 03:55:51;;;;;;;7.57;4.10;;;13.20;99.90;;;;;;5048697;28;20219;-67
2022/09/15 03:58:18;;;;;;;9.73;3.77;;;13.20;99.90;;;;;;5048655;28;20208;-68
2022/09/15 04:00:46;;;;;;;7.47;4.13;;;13.20;99.90;;;;;;5048661;28;20212;-67
2022/09/15 04:03:13;;;;;;;7.10;4.37;;;13.10;99.90;;;;;;5048568;28;20660;-67
2022/09/15 04:05:40;;;;;;;6.17;3.90;;;13.10;99.90;;;;;;5049059;28;20219;-67
2022/09/15 04:08:10;;;;;;;6.50;4.07;;;13.10;99.90;;;;;;5048346;28;20699;-67
2022/09/15 04:10:38;;;;;;;5.27;3.70;;;13.20;99.90;;;;;;5048654;28;20255;-67
2022/09/15 04:13:06;;;;;;;7.20;4.13;;;13.10;99.90;;;;;;5048569;28;20205;-67
2022/09/15 04:15:33;;;;;;;5.23;4.20;;;13.10;99.90;;;;;;5048150;28;20211;-67
2022/09/15 04:18:00;;;;;;;12.17;4.67;;;13.10;99.90;;;;;;5048398;28;20212;-67
2022/09/15 04:20:27;;;;;;;6.37;4.50;;;13.00;99.90;;;;;;5048008;28;20236;-67
2022/09/15 04:22:53;;;;;;;7.90;4.43;;;13.00;99.90;;;;;;5047565;28;20232;-68
2022/09/15 04:25:20;;;;;;;9.10;4.20;;;13.00;99.90;;;;;;5063714;28;20213;-67
2022/09/15 04:27:47;;;;;;;6.30;4.70;;;12.90;99.90;;;;;;5067739;28;20705;-67
2022/09/15 04:30:15;;;;;;;7.57;4.30;;;12.90;99.90;;;;;;5068227;28;20219;-67
2022/09/15 04:32:41;;;;;;;9.40;4.50;;;12.90;99.90;;;;;;5067747;28;20230;-67
2022/09/15 04:35:09;;;;;;;7.67;4.83;;;12.80;99.90;;;;;;5054035;28;20596;-67
2022/09/15 04:37:36;;;;;;;6.93;4.90;;;12.80;99.90;;;;;;5047872;28;20200;-67
2022/09/15 04:40:03;;;;;;;7.60;4.80;;;12.80;99.90;;;;;;5047762;28;20228;-67
2022/09/15 04:42:30;;;;;;;7.37;4.53;;;12.70;99.90;;;;;;5046758;28;20207;-67
2022/09/15 04:44:56;;;;;;;9.60;4.80;;;12.70;99.90;;;;;;5063175;28;20229;-67
2022/09/15 04:47:25;;;;;;;5.33;4.87;;;12.70;99.90;;;;;;5047656;28;20204;-68
2022/09/15 04:49:51;;;;;;;8.27;4.40;;;12.60;99.90;;;;;;5047921;28;20541;-67
2022/09/15 04:52:18;;;;;;;8.23;5.40;;;12.60;99.90;;;;;;5047660;28;20567;-67
2022/09/15 04:54:45;;;;;;;6.27;5.00;;;12.60;99.90;;;;;;5058402;28;20629;-67
2022/09/15 04:57:12;;;;;;;12.03;5.40;;;12.50;99.90;;;;;;5067497;28;20207;-67
2022/09/15 04:59:38;;;;;;;6.80;4.50;;;12.60;99.90;;;;;;5061013;28;20568;-67
2022/09/15 05:02:05;;;;;;;6.90;4.80;;;12.50;99.90;;;;;;5043275;28;20215;-67
2022/09/15 05:04:33;;;;;;;8.53;4.93;;;12.60;99.90;;;;;;5047722;28;20208;-67
2022/09/15 05:07:01;;;;;;;5.77;4.80;;;12.60;99.90;;;;;;5047507;28;20216;-67
2022/09/15 05:09:30;;;;;;;8.80;5.13;;;12.50;99.90;;;;;;5047445;28;20204;-67
2022/09/15 05:11:56;;;;;;;7.53;5.30;;;12.50;99.90;;;;;;5047830;28;20208;-67
2022/09/15 05:14:23;;;;;;;7.33;5.20;;;12.50;99.90;;;;;;5047534;28;20208;-67
2022/09/15 05:16:50;;;;;;;5.93;5.20;;;12.50;99.90;;;;;;5047671;28;20211;-67
2022/09/15 05:19:17;;;;;;;10.00;5.80;;;12.60;99.90;;;;;;5047329;28;20231;-67
2022/09/15 05:21:45;;;;;;;6.03;4.70;;;12.60;99.90;;;;;;5047542;28;20211;-67
2022/09/15 05:24:11;;;;;;;4.97;4.47;;;12.60;99.90;;;;;;5038520;28;20243;-67
2022/09/15 05:26:38;;;;;;;8.80;4.83;;;12.70;99.90;;;;;;5047159;28;20208;-68
2022/09/15 05:29:05;;;;;;;7.40;4.47;;;12.70;99.90;;;;;;5047013;28;20722;-67
2022/09/15 05:31:33;;;;;;;6.30;4.70;;;12.70;99.90;;;;;;5046570;28;20215;-67
2022/09/15 05:34:02;;;;;;;7.73;4.93;;;12.70;99.90;;;;;;5047255;28;20234;-67
2022/09/15 05:36:30;;;;;;;10.43;5.00;;;12.70;99.90;;;;;;5046816;28;20692;-67
2022/09/15 05:38:58;;;;;;;5.90;4.70;;;12.70;99.90;;;;;;5040111;28;20193;-67
2022/09/15 05:41:26;;;;;;;10.47;5.47;;;12.70;99.90;;;;;;5062542;28;20243;-67
2022/09/15 05:43:54;;;;;;;7.67;5.47;;;12.70;99.90;;;;;;5047269;28;20218;-67
2022/09/15 05:46:21;;;;;;;5.83;5.03;;;12.70;99.90;;;;;;5047157;28;20215;-67
2022/09/15 05:48:48;;;;;;;9.10;5.10;;;12.80;99.90;;;;;;5047364;28;20216;-67
2022/09/15 05:51:14;;;;;;;8.90;5.23;;;12.80;99.90;;;;;;5047331;28;20212;-68
2022/09/15 05:53:41;;;;;;;8.37;4.97;;;12.80;99.90;;;;;;5051777;28;20291;-68
2022/09/15 05:56:11;;;;;;;7.43;4.77;;;12.80;99.90;;;;;;5071267;28;20207;-67
2022/09/15 05:58:39;;;;;;;10.23;5.27;;;12.80;99.90;;;;;;5071074;28;20202;-67
2022/09/15 06:01:08;;;;;;;7.77;4.57;;;12.90;99.90;;;;;;5070905;28;21114;-67
2022/09/15 06:03:35;;;;;;;7.23;4.50;;;13.00;99.90;;;;;;5068887;28;20207;-67
2022/09/15 06:06:06;;;;;;;8.93;4.73;;;13.00;99.90;;;;;;5051113;28;20231;-68
2022/09/15 06:08:34;;;;;;;7.80;4.63;;;13.10;99.90;;;;;;5050933;28;20236;-67
2022/09/15 06:11:05;;;;;;;7.17;4.07;;;13.10;99.90;;;;;;5050861;28;20608;-67
2022/09/15 06:13:34;;;;;;;8.90;4.97;;;13.10;99.90;;;;;;5050300;28;20242;-67
2022/09/15 06:16:08;;;;;;;6.67;4.53;;;13.20;99.90;;;;;;5050657;28;20280;-67
2022/09/15 06:18:36;;;;;;;6.63;4.27;;;13.20;99.90;;;;;;5050586;28;20196;-67
2022/09/15 06:21:08;;;;;;;10.03;4.60;;;13.30;99.90;;;;;;5050471;28;21011;-67
2022/09/15 06:23:35;;;;;;;15.63;4.93;;;13.30;99.90;;;;;;5050020;28;20251;-67
2022/09/15 06:26:11;;;;;;;7.03;4.57;;;13.40;99.90;;;;;;5050328;28;20551;-67
2022/09/15 06:28:41;;;;;;;5.77;4.37;;;13.50;99.90;;;;;;5049535;28;20210;-67
2022/09/15 06:31:12;;;;;;;7.10;4.40;;;13.50;99.90;;;;;;5050001;28;20683;-67
2022/09/15 06:33:42;;;;;;;9.10;4.23;;;13.60;99.90;;;;;;5050230;28;20204;-67
2022/09/15 06:36:10;;;;;;;8.50;3.83;;;13.60;99.90;;;;;;5057361;28;20644;-67
2022/09/15 06:38:36;;;;;;;6.13;4.20;;;13.70;99.90;;;;;;5053115;28;20201;-67
2022/09/15 06:41:07;;;;;;;8.00;4.30;;;13.70;99.90;;;;;;5030008;28;20236;-68
2022/09/15 06:43:35;;;;;;;5.23;3.57;;;13.70;99.90;;;;;;5030798;28;20220;-67
2022/09/15 06:46:07;;;;;;;5.37;3.77;;;13.70;99.90;;;;;;5030167;28;20682;-67
2022/09/15 06:48:34;;;;;;;5.50;3.30;;;13.70;99.90;;;;;;5030527;28;20280;-67
2022/09/15 06:51:04;;;;;;;8.00;4.23;;;13.80;99.90;;;;;;5030358;28;20208;-67
2022/09/15 06:53:32;;;;;;;8.50;3.97;;;13.80;99.90;;;;;;5030874;28;20295;-67
2022/09/15 06:56:04;;;;;;;6.67;4.17;;;13.80;99.90;;;;;;5070221;28;20207;-68
2022/09/15 06:58:32;;;;;;;6.33;3.83;;;13.80;99.90;;;;;;5069988;28;20188;-68
2022/09/15 07:01:09;;;;;;;7.87;4.20;;;13.80;99.90;;;;;;5057867;28;20235;-68
2022/09/15 07:03:36;;;;;;;8.47;4.30;;;13.80;99.90;;;;;;5049097;28;20211;-68
2022/09/15 07:06:07;;;;;;;10.43;4.40;;;13.80;99.90;;;;;;5049191;28;20223;-67
2022/09/15 07:08:34;;;;;;;7.80;3.83;;;13.80;99.90;;;;;;5049824;28;20220;-67
2022/09/15 07:11:02;;;;;;;7.13;3.93;;;13.80;99.90;;;;;;5049849;28;20298;-67
2022/09/15 07:13:28;;;;;;;10.90;4.13;;;13.90;99.90;;;;;;5049560;28;20213;-67
2022/09/15 07:15:57;;;;;;;4.83;3.53;;;14.00;99.90;;;;;;5049369;28;20227;-68
2022/09/15 07:18:26;;;;;;;5.93;3.97;;;14.00;99.90;;;;;;5049506;28;20234;-68
2022/09/15 07:20:57;;;;;;;5.63;3.20;;;14.10;99.90;;;;;;5049590;28;20232;-67
2022/09/15 07:23:24;;;;;;;7.37;3.87;;;14.10;99.90;;;;;;5047270;28;20625;-67
2022/09/15 07:25:51;;;;;;;5.63;3.27;;;14.10;99.90;;;;;;5069099;28;20226;-67
2022/09/15 07:28:18;;;;;;;5.80;3.20;;;14.10;99.90;;;;;;5068951;28;20692;-67
2022/09/15 07:30:44;;;;;;;7.53;3.70;;;14.10;99.90;;;;;;5069169;28;20238;-67
2022/09/15 07:33:13;;;;;;;5.53;3.40;;;14.10;99.90;;;;;;5055550;28;20207;-67
2022/09/15 07:35:43;;;;;;;5.63;3.33;;;14.10;99.90;;;;;;5030593;28;20229;-67
2022/09/15 07:38:10;;;;;;;5.17;3.00;;;14.20;99.90;;;;;;5029970;28;20211;-67
2022/09/15 07:40:37;;;;;;;6.60;3.07;;;14.20;99.90;;;;;;5049420;28;20259;-67
2022/09/15 07:43:05;;;;;;;4.47;2.80;;;14.30;99.90;;;;;;5049672;28;20212;-67
2022/09/15 07:45:32;;;;;;;5.83;3.03;;;14.30;99.90;;;;;;5049092;28;20261;-67
2022/09/15 07:47:58;;;;;;;4.93;3.30;;;14.30;99.90;;;;;;5049498;28;20217;-67
2022/09/15 07:50:25;;;;;;;5.40;3.00;;;14.30;99.90;;;;;;5049608;28;20212;-67
2022/09/15 07:52:56;;;;;;;7.93;3.17;;;14.30;99.90;;;;;;5049191;28;20279;-67
2022/09/15 07:55:23;;;;;;;11.37;3.23;;;14.40;99.90;;;;;;5065009;28;20215;-67
2022/09/15 07:57:56;;;;;;;4.50;2.80;;;14.40;99.90;;;;;;5052585;28;20208;-67
2022/09/15 08:00:23;;;;;;;3.90;2.77;;;14.40;99.90;;;;;;5048471;28;20323;-67
2022/09/15 08:02:50;;;;;;;8.47;3.37;;;14.40;99.90;;;;;;5048314;28;20616;-67
2022/09/15 08:05:16;;;;;;;4.53;2.40;;;14.50;99.90;;;;;;5048699;28;20208;-67
2022/09/15 08:07:43;;;;;;;2.83;2.33;;;14.60;99.90;;;;;;5048965;28;20211;-67
2022/09/15 08:10:11;;;;;;;7.80;2.77;;;14.70;99.90;;;;;;5048844;28;20208;-67
2022/09/15 08:12:39;;;;;;;3.57;2.43;;;14.70;99.90;;;;;;5048652;28;20204;-67
2022/09/15 08:15:06;;;;;;;3.50;2.23;;;14.80;99.90;;;;;;5048414;28;20207;-67
2022/09/15 08:17:35;;;;;;;5.47;2.23;;;14.90;99.90;;;;;;5048310;28;20295;-67
2022/09/15 08:20:02;;;;;;;4.83;2.80;;;15.00;99.90;;;;;;5048204;28;20234;-67
2022/09/15 08:22:28;;;;;;;5.10;2.30;;;15.00;99.90;;;;;;5048081;28;20204;-67
2022/09/15 08:24:55;;;;;;;4.87;2.37;;;15.00;99.90;;;;;;5048342;28;20216;-67
2022/09/15 08:27:24;;;;;;;3.73;2.30;;;15.00;99.90;;;;;;5048419;28;20208;-67
2022/09/15 08:29:50;;;;;;;3.43;1.97;;;15.00;99.90;;;;;;5063662;28;20235;-67
2022/09/15 08:32:17;;;;;;;3.23;2.37;;;15.10;99.90;;;;;;5047994;28;20232;-67
2022/09/15 08:34:44;;;;;;;5.13;2.20;;;15.10;99.90;;;;;;5048285;28;20220;-67
2022/09/15 08:37:11;;;;;;;7.57;2.50;;;15.20;99.90;;;;;;5047976;28;20208;-67
2022/09/15 08:39:37;;;;;;;5.67;2.73;;;15.20;99.90;;;;;;5047709;28;20204;-67
2022/09/15 08:42:05;;;;;;;4.83;2.67;;;15.20;99.90;;;;;;5047933;28;20223;-67
2022/09/15 08:44:40;;;;;;;3.83;2.67;;;15.20;99.90;;;;;;5048138;28;20208;-67
2022/09/15 08:47:12;;;;;;;4.37;2.47;;;15.20;99.90;;;;;;5048110;28;20196;-67
2022/09/15 08:49:44;;;;;;;7.30;2.37;;;15.20;99.90;;;;;;5047682;28;20197;-68
2022/09/15 08:52:22;;;;;;;3.60;2.63;;;15.20;99.90;;;;;;5047763;28;20196;-68
2022/09/15 08:54:52;;;;;;;3.90;2.70;;;15.20;99.90;;;;;;5047952;28;20266;-68
2022/09/15 08:57:23;;;;;;;5.77;2.80;;;15.20;99.90;;;;;;5047920;28;20207;-68
2022/09/15 08:59:53;;;;;;;8.17;5.43;;;15.10;99.90;;;;;;5047798;28;20196;-68
2022/09/15 09:02:44;;;;;;;5.73;3.27;;;15.10;99.90;;;;;;5047353;28;20263;-68
2022/09/15 09:05:28;;;;;;;3.60;3.30;;;15.10;99.90;;;;;;5047723;28;20196;-68
2022/09/15 09:08:24;;;;;;;5.30;2.70;;;15.10;99.90;;;;;;5047823;28;20196;-68
2022/09/15 09:10:54;;;;;;;3.37;2.30;;;15.20;99.90;;;;;;5016930;28;20219;-68
2022/09/15 09:13:30;;;;;;;4.03;2.30;;;15.20;99.90;;;;;;5047069;28;20250;-68
2022/09/15 09:16:13;;;;;;;4.43;2.20;;;15.30;99.90;;;;;;5047365;28;20231;-68
2022/09/15 09:19:03;;;;;;;4.07;2.10;;;15.40;99.90;;;;;;5047495;28;20196;-68
2022/09/15 09:21:32;;;;;;;7.27;2.50;;;15.50;99.90;;;;;;5047504;28;20228;-68
2022/09/15 09:24:04;;;;;;;4.70;2.33;;;15.60;99.90;;;;;;5042630;28;20776;-68
2022/09/15 09:26:33;;;;;;;2.93;2.20;;;15.60;99.90;;;;;;5047317;28;20203;-68
2022/09/15 09:29:02;;;;;;;4.97;1.97;;;15.80;99.90;;;;;;5046758;28;20299;-68
2022/09/15 09:31:30;;;;;;;2.00;1.77;;;15.80;99.90;;;;;;5046691;28;20776;-68
2022/09/15 09:34:05;;;;;;;2.23;1.80;;;16.00;99.90;;;;;;5047424;28;20231;-69
2022/09/15 09:36:32;;;;;;;4.77;1.87;;;16.00;99.90;;;;;;5047199;28;20211;-68
2022/09/15 09:39:01;;;;;;;4.60;1.70;;;16.20;99.90;;;;;;5047037;28;20195;-68
2022/09/15 09:41:34;;;;;;;3.17;1.40;;;16.20;99.90;;;;;;5046962;28;20754;-68
2022/09/15 09:44:03;;;;;;;3.00;1.40;;;16.30;99.90;;;;;;5047077;28;20242;-68
2022/09/15 09:46:31;;;;;;;2.30;1.53;;;16.40;99.90;;;;;;5047331;28;20212;-68
2022/09/15 09:49:03;;;;;;;3.33;1.43;;;16.60;99.90;;;;;;5047259;28;20725;-68
2022/09/15 09:51:32;;;;;;;4.77;1.70;;;16.60;99.90;;;;;;5047329;28;20203;-69
2022/09/15 09:54:11;;;;;;;5.53;1.50;;;16.70;99.90;;;;;;5051447;28;20223;-68
2022/09/15 09:56:38;;;;;;;2.50;1.43;;;16.90;99.90;;;;;;5067294;28;20195;-68
2022/09/15 09:59:05;;;;;;;2.20;1.63;;;17.00;99.90;;;;;;5067409;28;20593;-68
2022/09/15 10:01:33;;;;;;;11.17;2.77;;;17.00;99.90;;;;;;5066473;28;20228;-69
2022/09/15 10:04:12;;;;;;;3.27;1.43;;;17.00;99.90;;;;;;5067157;28;20212;-68
2022/09/15 10:06:40;;;;;;;2.00;0.90;;;17.00;99.90;;;;;;5066684;28;20206;-68
2022/09/15 10:09:09;;;;;;;4.50;1.17;;;17.00;99.90;;;;;;5066547;28;20685;-68
2022/09/15 10:11:42;;;;;;;3.40;1.20;;;17.10;99.90;;;;;;5061973;28;20204;-68
2022/09/15 10:14:18;;;;;;;6.63;1.80;;;17.30;99.90;;;;;;5046557;28;20589;-68
2022/09/15 10:16:56;;;;;;;4.37;1.50;;;17.30;99.90;;;;;;5046564;28;20241;-68
2022/09/15 10:19:23;;;;;;;2.03;1.50;;;17.30;99.90;;;;;;5046740;28;20192;-69
2022/09/15 10:21:49;;;;;;;5.33;1.67;;;17.30;99.90;;;;;;5059416;28;20239;-68
2022/09/15 10:24:38;;;;;;;2.23;1.20;;;17.40;99.90;;;;;;5048361;28;20238;-68
2022/09/15 10:27:18;;;;;;;4.70;1.80;;;17.40;99.90;;;;;;5046878;28;20197;-69
2022/09/15 10:29:45;;;;;;;5.03;1.20;;;17.50;99.90;;;;;;5046796;28;20200;-69
2022/09/15 10:32:22;;;;;;;2.53;1.30;;;17.50;99.90;;;;;;5046454;28;20244;-68
2022/09/15 10:34:49;;;;;;;3.00;1.07;;;17.50;99.90;;;;;;5046485;28;20223;-68
2022/09/15 10:37:24;;;;;;;1.90;1.00;;;17.70;99.90;;;;;;5046355;28;20573;-69
2022/09/15 10:39:56;;;;;;;5.23;1.30;;;17.80;99.90;;;;;;5049283;28;20207;-68
2022/09/15 10:42:35;;;;;;;4.17;1.40;;;17.70;99.90;;;;;;5050354;28;20236;-68
2022/09/15 10:45:12;;;;;;;1.17;0.90;;;17.60;99.90;;;;;;5050122;28;20200;-69
2022/09/15 10:47:55;;;;;;;2.47;1.40;;;17.50;99.90;;;;;;5050286;28;20196;-68
2022/09/15 10:50:30;;;;;;;1.83;0.83;;;17.50;99.90;;;;;;5049732;28;20715;-69
2022/09/15 10:53:08;;;;;;;1.60;0.87;;;17.40;99.90;;;;;;5050156;28;20273;-69
2022/09/15 10:55:44;;;;;;;1.60;1.07;;;17.30;99.90;;;;;;5067448;28;20207;-69
2022/09/15 10:58:40;;;;;;;2.47;1.00;;;17.40;99.90;;;;;;5069694;28;20579;-68
2022/09/15 11:01:25;;;;;;;2.90;1.20;;;17.40;99.90;;;;;;5069744;28;20220;-68
2022/09/15 11:04:20;;;;;;;3.83;1.50;;;17.40;99.90;;;;;;5069893;28;20203;-68
2022/09/15 11:06:54;;;;;;;4.67;1.40;;;17.40;99.90;;;;;;5069966;28;20199;-68
2022/09/15 11:09:25;;;;;;;2.93;1.10;;;17.20;99.90;;;;;;5052032;28;20666;-68
2022/09/15 11:12:03;;;;;;;4.40;1.13;;;17.20;99.90;;;;;;5049928;28;20196;-68
2022/09/15 11:14:40;;;;;;;2.20;0.80;;;17.20;99.90;;;;;;5049462;28;20192;-68
2022/09/15 11:17:19;;;;;;;3.10;0.90;;;17.30;99.90;;;;;;5049503;28;20208;-68
2022/09/15 11:20:02;;;;;;;1.80;0.70;;;17.40;99.90;;;;;;5049493;28;20278;-68
2022/09/15 11:22:35;;;;;;;1.47;0.90;;;17.50;99.90;;;;;;5049203;28;20227;-68
2022/09/15 11:25:03;;;;;;;1.63;1.10;;;17.50;99.90;;;;;;5049241;28;20215;-68
2022/09/15 11:27:36;;;;;;;2.60;0.90;;;17.40;99.90;;;;;;5049157;28;20219;-68
2022/09/15 11:30:06;;;;;;;2.53;1.43;;;17.40;99.90;;;;;;5049305;28;20284;-68
2022/09/15 11:32:43;;;;;;;2.57;0.97;;;17.40;99.90;;;;;;5049028;28;20196;-68
2022/09/15 11:38:15;;;;;;;3.53;1.37;;;17.30;99.90;;;;;;5084884;28;20925;-67
2022/09/15 11:40:47;;;;;;;2.73;1.70;;;17.30;99.90;;;;;;5084307;28;20211;-67
2022/09/15 11:43:18;;;;;;;2.87;1.23;;;17.30;99.90;;;;;;5084864;28;20206;-68
2022/09/15 11:45:50;;;;;;;3.63;1.17;;;17.30;99.90;;;;;;5084341;28;20281;-67
2022/09/15 11:48:22;;;;;;;2.87;1.40;;;17.40;99.90;;;;;;5084919;28;20206;-67
2022/09/15 11:50:53;;;;;;;2.87;1.50;;;17.40;99.90;;;;;;5084671;28;20207;-68
2022/09/15 11:53:30;;;;;;;3.53;1.17;;;17.50;99.90;;;;;;5084077;28;20890;-68
2022/09/15 11:56:07;;;;;;;2.47;1.20;;;17.60;99.90;;;;;;5064428;28;20225;-68
2022/09/15 11:58:41;;;;;;;1.80;0.97;;;17.50;99.90;;;;;;5064358;28;20188;-68
2022/09/15 12:01:14;;;;;;;3.40;1.53;;;17.50;99.90;;;;;;5063920;28;20194;-68
2022/09/15 12:03:49;;;;;;;2.47;1.20;;;17.50;99.90;;;;;;5065175;28;20210;-67
2022/09/15 12:06:20;;;;;;;2.53;1.27;;;17.40;99.90;;;;;;5084063;28;20203;-68
2022/09/15 12:08:53;;;;;;;1.27;1.10;;;17.30;99.90;;;;;;5083925;28;20195;-68
2022/09/15 12:11:23;;;;;;;4.30;1.53;;;17.30;99.90;;;;;;5083968;28;20198;-68
2022/09/15 12:13:51;;;;;;;2.33;1.10;;;17.30;99.90;;;;;;5083703;28;20285;-68
2022/09/15 12:16:19;;;;;;;2.33;1.30;;;17.30;99.90;;;;;;5070033;28;20230;-68
2022/09/15 12:18:50;;;;;;;1.83;1.23;;;17.20;99.90;;;;;;5063685;28;20673;-68
2022/09/15 12:21:22;;;;;;;3.87;1.40;;;17.20;99.90;;;;;;5063856;28;20188;-68
2022/09/15 12:23:56;;;;;;;2.53;1.23;;;17.20;99.90;;;;;;5074557;28;20650;-68
2022/09/15 12:26:25;;;;;;;2.93;1.27;;;17.50;99.90;;;;;;5083805;28;20214;-68
2022/09/15 12:28:57;;;;;;;3.03;1.33;;;17.80;99.90;;;;;;5083798;28;20214;-68
2022/09/15 12:31:36;;;;;;;1.77;1.13;;;18.20;99.90;;;;;;5083098;28;20563;-68
2022/09/15 12:34:05;;;;;;;3.80;1.17;;;18.30;99.90;;;;;;5083854;28;20230;-68
2022/09/15 12:36:39;;;;;;;4.07;1.27;;;18.20;99.90;;;;;;5083253;28;20615;-68
2022/09/15 12:39:36;;;;;;;3.13;1.47;;;18.10;99.90;;;;;;5074777;28;20208;-68
2022/09/15 12:42:13;;;;;;;3.63;1.10;;;18.00;99.90;;;;;;5063453;28;20207;-68
2022/09/15 12:44:43;;;;;;;4.17;1.47;;;18.10;99.90;;;;;;5063186;28;20606;-68
2022/09/15 12:47:28;;;;;;;5.83;1.43;;;18.10;99.90;;;;;;5062449;28;20780;-68
2022/09/15 12:49:59;;;;;;;3.77;1.57;;;18.10;99.90;;;;;;5049904;28;20200;-68
2022/09/15 12:52:28;;;;;;;4.63;1.10;;;18.10;99.90;;;;;;5049539;28;20699;-68
2022/09/15 12:55:00;;;;;;;3.07;1.10;;;18.20;99.90;;;;;;5061574;28;20238;-68
2022/09/15 12:57:32;;;;;;;3.57;1.10;;;18.40;99.90;;;;;;5069810;28;20223;-68
2022/09/15 13:00:26;;;;;;;3.90;1.37;;;18.60;99.90;;;;;;5068203;28;20192;-68
2022/09/15 13:02:54;;;;;;;2.20;1.07;;;18.80;99.90;;;;;;5049704;28;20205;-68
2022/09/15 13:05:52;;;;;;;1.80;1.10;;;19.30;99.90;;;;;;5049519;28;20235;-68
2022/09/15 13:08:52;;;;;;;1.73;0.87;;;19.40;99.90;;;;;;5049473;28;20199;-68
2022/09/15 13:11:39;;;;;;;3.97;0.90;;;19.20;99.90;;;;;;5052926;28;20819;-68
2022/09/15 13:14:16;;;;;;;4.33;1.03;;;19.10;99.90;;;;;;5055533;28;20219;-68